sensor_id;sensor_type;location;lat;lon;timestamp;P1;durP1;ratioP1;P2;durP2;ratioP2
64075;SDS011;50327;51.328;12.324;2022-10-12T00:00:53;29.70;;;9.18;;
64075;SDS011;50327;51.328;12.324;2022-10-12T00:03:19;27.73;;;8.70;;
64075;SDS011;50327;51.328;12.324;2022-10-12T00:05:44;25.50;;;9.75;;
64075;SDS011;50327;51.328;12.324;2022-10-12T00:08:09;26.75;;;9.25;;
64075;SDS011;50327;51.328;12.324;2022-10-12T00:10:38;28.58;;;9.57;;
64075;SDS011;50327;51.328;12.324;2022-10-12T00:13:04;31.90;;;9.50;;
64075;SDS011;50327;51.328;12.324;2022-10-12T00:15:29;25.83;;;8.18;;
64075;SDS011;50327;51.328;12.324;2022-10-12T00:17:54;29.48;;;8.00;;
64075;SDS011;50327;51.328;12.324;2022-10-12T00:20:19;26.05;;;8.27;;
64075;SDS011;50327;51.328;12.324;2022-10-12T00:22:44;24.23;;;7.63;;
64075;SDS011;50327;51.328;12.324;2022-10-12T00:25:10;26.23;;;9.27;;
64075;SDS011;50327;51.328;12.324;2022-10-12T00:27:35;28.88;;;8.43;;
64075;SDS011;50327;51.328;12.324;2022-10-12T00:30:00;29.88;;;7.80;;
64075;SDS011;50327;51.328;12.324;2022-10-12T00:32:25;28.95;;;8.85;;
64075;SDS011;50327;51.328;12.324;2022-10-12T00:34:51;28.42;;;8.70;;
64075;SDS011;50327;51.328;12.324;2022-10-12T00:37:16;25.02;;;8.65;;
64075;SDS011;50327;51.328;12.324;2022-10-12T00:39:41;30.33;;;8.07;;
64075;SDS011;50327;51.328;12.324;2022-10-12T00:42:08;53.88;;;9.35;;
64075;SDS011;50327;51.328;12.324;2022-10-12T00:47:12;21.80;;;7.82;;
64075;SDS011;50327;51.328;12.324;2022-10-12T00:49:37;30.58;;;7.95;;
64075;SDS011;50327;51.328;12.324;2022-10-12T00:52:04;28.35;;;8.25;;
64075;SDS011;50327;51.328;12.324;2022-10-12T00:54:32;19.98;;;8.00;;
64075;SDS011;50327;51.328;12.324;2022-10-12T00:56:58;22.08;;;8.73;;
64075;SDS011;50327;51.328;12.324;2022-10-12T00:59:27;29.83;;;8.73;;
64075;SDS011;50327;51.328;12.324;2022-10-12T01:01:52;18.77;;;7.57;;
64075;SDS011;50327;51.328;12.324;2022-10-12T01:04:17;27.48;;;8.43;;
64075;SDS011;50327;51.328;12.324;2022-10-12T01:06:43;23.98;;;8.15;;
64075;SDS011;50327;51.328;12.324;2022-10-12T01:09:08;21.20;;;8.38;;
64075;SDS011;50327;51.328;12.324;2022-10-12T01:11:33;24.50;;;9.50;;
64075;SDS011;50327;51.328;12.324;2022-10-12T01:13:58;21.85;;;8.18;;
64075;SDS011;50327;51.328;12.324;2022-10-12T01:21:41;21.02;;;7.60;;
64075;SDS011;50327;51.328;12.324;2022-10-12T01:24:20;30.02;;;8.98;;
64075;SDS011;50327;51.328;12.324;2022-10-12T01:32:20;26.67;;;8.38;;
64075;SDS011;50327;51.328;12.324;2022-10-12T01:34:55;22.45;;;7.95;;
64075;SDS011;50327;51.328;12.324;2022-10-12T01:37:26;29.60;;;9.35;;
64075;SDS011;50327;51.328;12.324;2022-10-12T01:39:55;21.75;;;8.55;;
64075;SDS011;50327;51.328;12.324;2022-10-12T01:42:27;22.63;;;8.70;;
64075;SDS011;50327;51.328;12.324;2022-10-12T01:45:00;20.45;;;7.93;;
64075;SDS011;50327;51.328;12.324;2022-10-12T01:47:26;27.25;;;8.18;;
64075;SDS011;50327;51.328;12.324;2022-10-12T01:49:51;25.52;;;8.45;;
64075;SDS011;50327;51.328;12.324;2022-10-12T01:52:23;35.55;;;8.52;;
64075;SDS011;50327;51.328;12.324;2022-10-12T01:57:41;30.40;;;9.50;;
64075;SDS011;50327;51.328;12.324;2022-10-12T02:00:09;25.55;;;9.20;;
64075;SDS011;50327;51.328;12.324;2022-10-12T02:07:41;24.48;;;9.48;;
64075;SDS011;50327;51.328;12.324;2022-10-12T02:10:18;28.42;;;8.20;;
64075;SDS011;50327;51.328;12.324;2022-10-12T02:12:45;32.38;;;10.70;;
64075;SDS011;50327;51.328;12.324;2022-10-12T02:15:13;21.10;;;8.30;;
64075;SDS011;50327;51.328;12.324;2022-10-12T02:17:39;23.77;;;8.32;;
64075;SDS011;50327;51.328;12.324;2022-10-12T02:20:05;26.50;;;9.05;;
64075;SDS011;50327;51.328;12.324;2022-10-12T02:22:33;30.38;;;8.70;;
64075;SDS011;50327;51.328;12.324;2022-10-12T02:25:04;21.40;;;8.15;;
64075;SDS011;50327;51.328;12.324;2022-10-12T02:27:31;26.13;;;8.70;;
64075;SDS011;50327;51.328;12.324;2022-10-12T02:29:57;40.63;;;9.65;;
64075;SDS011;50327;51.328;12.324;2022-10-12T02:32:27;28.60;;;8.40;;
64075;SDS011;50327;51.328;12.324;2022-10-12T02:37:38;26.15;;;8.75;;
64075;SDS011;50327;51.328;12.324;2022-10-12T02:42:37;28.50;;;8.23;;
64075;SDS011;50327;51.328;12.324;2022-10-12T02:45:05;26.05;;;8.68;;
64075;SDS011;50327;51.328;12.324;2022-10-12T02:47:32;23.50;;;8.80;;
64075;SDS011;50327;51.328;12.324;2022-10-12T02:49:59;31.13;;;10.15;;
64075;SDS011;50327;51.328;12.324;2022-10-12T02:52:24;27.10;;;8.57;;
64075;SDS011;50327;51.328;12.324;2022-10-12T02:54:50;28.80;;;9.10;;
64075;SDS011;50327;51.328;12.324;2022-10-12T02:57:15;23.73;;;8.88;;
64075;SDS011;50327;51.328;12.324;2022-10-12T02:59:41;23.55;;;9.15;;
64075;SDS011;50327;51.328;12.324;2022-10-12T03:02:06;32.30;;;9.02;;
64075;SDS011;50327;51.328;12.324;2022-10-12T03:04:32;22.27;;;8.18;;
64075;SDS011;50327;51.328;12.324;2022-10-12T03:06:58;28.10;;;10.20;;
64075;SDS011;50327;51.328;12.324;2022-10-12T03:09:23;34.15;;;9.40;;
64075;SDS011;50327;51.328;12.324;2022-10-12T03:11:48;22.55;;;9.70;;
64075;SDS011;50327;51.328;12.324;2022-10-12T03:14:13;25.27;;;9.50;;
64075;SDS011;50327;51.328;12.324;2022-10-12T03:16:39;24.58;;;8.95;;
64075;SDS011;50327;51.328;12.324;2022-10-12T03:19:06;29.73;;;10.43;;
64075;SDS011;50327;51.328;12.324;2022-10-12T03:21:31;28.77;;;10.48;;
64075;SDS011;50327;51.328;12.324;2022-10-12T03:23:57;30.38;;;11.25;;
64075;SDS011;50327;51.328;12.324;2022-10-12T03:26:22;25.58;;;10.65;;
64075;SDS011;50327;51.328;12.324;2022-10-12T03:28:47;32.85;;;10.18;;
64075;SDS011;50327;51.328;12.324;2022-10-12T03:31:12;27.83;;;10.43;;
64075;SDS011;50327;51.328;12.324;2022-10-12T03:33:37;32.72;;;11.40;;
64075;SDS011;50327;51.328;12.324;2022-10-12T03:36:03;28.65;;;10.27;;
64075;SDS011;50327;51.328;12.324;2022-10-12T03:38:28;25.08;;;10.82;;
64075;SDS011;50327;51.328;12.324;2022-10-12T03:40:53;24.63;;;9.73;;
64075;SDS011;50327;51.328;12.324;2022-10-12T03:43:18;37.13;;;9.45;;
64075;SDS011;50327;51.328;12.324;2022-10-12T03:45:44;22.65;;;8.48;;
64075;SDS011;50327;51.328;12.324;2022-10-12T03:48:09;20.48;;;8.70;;
64075;SDS011;50327;51.328;12.324;2022-10-12T03:50:34;21.65;;;9.18;;
64075;SDS011;50327;51.328;12.324;2022-10-12T03:53:00;24.83;;;9.82;;
64075;SDS011;50327;51.328;12.324;2022-10-12T03:55:25;20.60;;;8.75;;
64075;SDS011;50327;51.328;12.324;2022-10-12T03:57:50;27.08;;;9.55;;
64075;SDS011;50327;51.328;12.324;2022-10-12T04:00:15;30.23;;;10.60;;
64075;SDS011;50327;51.328;12.324;2022-10-12T04:02:41;25.67;;;10.10;;
64075;SDS011;50327;51.328;12.324;2022-10-12T04:05:06;30.58;;;11.13;;
64075;SDS011;50327;51.328;12.324;2022-10-12T04:07:31;30.52;;;10.45;;
64075;SDS011;50327;51.328;12.324;2022-10-12T04:09:56;25.42;;;9.35;;
64075;SDS011;50327;51.328;12.324;2022-10-12T04:12:22;28.08;;;9.60;;
64075;SDS011;50327;51.328;12.324;2022-10-12T04:14:47;24.27;;;9.18;;
64075;SDS011;50327;51.328;12.324;2022-10-12T04:17:13;28.92;;;9.38;;
64075;SDS011;50327;51.328;12.324;2022-10-12T04:19:39;23.77;;;8.32;;
64075;SDS011;50327;51.328;12.324;2022-10-12T04:22:04;24.13;;;8.40;;
64075;SDS011;50327;51.328;12.324;2022-10-12T04:24:29;21.40;;;8.75;;
64075;SDS011;50327;51.328;12.324;2022-10-12T04:26:54;24.25;;;9.40;;
64075;SDS011;50327;51.328;12.324;2022-10-12T04:29:19;26.20;;;11.85;;
64075;SDS011;50327;51.328;12.324;2022-10-12T04:31:46;22.50;;;11.25;;
64075;SDS011;50327;51.328;12.324;2022-10-12T04:34:11;28.80;;;12.27;;
64075;SDS011;50327;51.328;12.324;2022-10-12T04:36:36;29.17;;;12.82;;
64075;SDS011;50327;51.328;12.324;2022-10-12T04:39:01;30.95;;;12.52;;
64075;SDS011;50327;51.328;12.324;2022-10-12T04:41:27;24.90;;;12.38;;
64075;SDS011;50327;51.328;12.324;2022-10-12T04:43:52;38.78;;;13.82;;
64075;SDS011;50327;51.328;12.324;2022-10-12T04:46:17;32.53;;;12.65;;
64075;SDS011;50327;51.328;12.324;2022-10-12T04:48:42;36.28;;;12.73;;
64075;SDS011;50327;51.328;12.324;2022-10-12T04:51:08;24.70;;;11.23;;
64075;SDS011;50327;51.328;12.324;2022-10-12T04:53:33;34.17;;;11.25;;
64075;SDS011;50327;51.328;12.324;2022-10-12T04:56:01;26.95;;;11.77;;
64075;SDS011;50327;51.328;12.324;2022-10-12T04:58:26;24.95;;;11.35;;
64075;SDS011;50327;51.328;12.324;2022-10-12T05:00:51;44.25;;;15.23;;
64075;SDS011;50327;51.328;12.324;2022-10-12T05:03:16;28.40;;;12.38;;
64075;SDS011;50327;51.328;12.324;2022-10-12T05:05:43;22.48;;;10.80;;
64075;SDS011;50327;51.328;12.324;2022-10-12T05:08:08;26.88;;;11.88;;
64075;SDS011;50327;51.328;12.324;2022-10-12T05:10:33;31.42;;;12.35;;
64075;SDS011;50327;51.328;12.324;2022-10-12T05:12:58;30.67;;;11.63;;
64075;SDS011;50327;51.328;12.324;2022-10-12T05:15:24;31.45;;;12.80;;
64075;SDS011;50327;51.328;12.324;2022-10-12T05:17:49;29.52;;;14.57;;
64075;SDS011;50327;51.328;12.324;2022-10-12T05:20:14;34.53;;;13.10;;
64075;SDS011;50327;51.328;12.324;2022-10-12T05:22:39;30.42;;;12.15;;
64075;SDS011;50327;51.328;12.324;2022-10-12T05:25:05;33.03;;;11.70;;
64075;SDS011;50327;51.328;12.324;2022-10-12T05:27:30;29.02;;;12.10;;
64075;SDS011;50327;51.328;12.324;2022-10-12T05:29:55;25.90;;;11.35;;
64075;SDS011;50327;51.328;12.324;2022-10-12T05:32:20;29.98;;;12.52;;
64075;SDS011;50327;51.328;12.324;2022-10-12T05:34:46;22.55;;;11.07;;
64075;SDS011;50327;51.328;12.324;2022-10-12T05:37:11;34.72;;;12.90;;
64075;SDS011;50327;51.328;12.324;2022-10-12T05:39:36;37.47;;;14.10;;
64075;SDS011;50327;51.328;12.324;2022-10-12T05:42:02;32.63;;;15.00;;
64075;SDS011;50327;51.328;12.324;2022-10-12T05:44:27;38.33;;;12.80;;
64075;SDS011;50327;51.328;12.324;2022-10-12T05:46:52;32.80;;;14.00;;
64075;SDS011;50327;51.328;12.324;2022-10-12T05:49:18;31.92;;;13.65;;
64075;SDS011;50327;51.328;12.324;2022-10-12T05:51:43;38.17;;;13.13;;
64075;SDS011;50327;51.328;12.324;2022-10-12T05:54:08;33.05;;;13.85;;
64075;SDS011;50327;51.328;12.324;2022-10-12T05:56:33;34.63;;;14.48;;
64075;SDS011;50327;51.328;12.324;2022-10-12T05:58:58;30.23;;;13.30;;
64075;SDS011;50327;51.328;12.324;2022-10-12T06:01:24;40.40;;;14.43;;
64075;SDS011;50327;51.328;12.324;2022-10-12T06:03:49;40.83;;;14.48;;
64075;SDS011;50327;51.328;12.324;2022-10-12T06:06:15;38.67;;;13.90;;
64075;SDS011;50327;51.328;12.324;2022-10-12T06:08:40;37.10;;;13.15;;
64075;SDS011;50327;51.328;12.324;2022-10-12T06:11:05;31.33;;;14.13;;
64075;SDS011;50327;51.328;12.324;2022-10-12T06:13:31;36.45;;;15.27;;
64075;SDS011;50327;51.328;12.324;2022-10-12T06:15:56;43.78;;;16.55;;
64075;SDS011;50327;51.328;12.324;2022-10-12T06:18:22;43.35;;;17.80;;
64075;SDS011;50327;51.328;12.324;2022-10-12T06:20:47;41.78;;;16.05;;
64075;SDS011;50327;51.328;12.324;2022-10-12T06:23:13;39.63;;;16.88;;
64075;SDS011;50327;51.328;12.324;2022-10-12T06:25:39;41.85;;;14.75;;
64075;SDS011;50327;51.328;12.324;2022-10-12T06:28:04;38.28;;;15.25;;
64075;SDS011;50327;51.328;12.324;2022-10-12T06:30:29;40.40;;;14.93;;
64075;SDS011;50327;51.328;12.324;2022-10-12T06:32:54;28.02;;;12.68;;
64075;SDS011;50327;51.328;12.324;2022-10-12T06:35:20;34.53;;;14.20;;
64075;SDS011;50327;51.328;12.324;2022-10-12T06:37:51;30.55;;;13.35;;
64075;SDS011;50327;51.328;12.324;2022-10-12T06:40:17;28.63;;;13.20;;
64075;SDS011;50327;51.328;12.324;2022-10-12T06:42:42;32.00;;;13.63;;
64075;SDS011;50327;51.328;12.324;2022-10-12T06:45:07;45.38;;;13.68;;
64075;SDS011;50327;51.328;12.324;2022-10-12T06:47:33;25.23;;;11.80;;
64075;SDS011;50327;51.328;12.324;2022-10-12T06:49:58;27.95;;;13.73;;
64075;SDS011;50327;51.328;12.324;2022-10-12T06:52:23;34.53;;;12.73;;
64075;SDS011;50327;51.328;12.324;2022-10-12T06:54:48;34.78;;;13.73;;
64075;SDS011;50327;51.328;12.324;2022-10-12T06:57:13;28.55;;;13.07;;
64075;SDS011;50327;51.328;12.324;2022-10-12T06:59:39;23.75;;;11.52;;
64075;SDS011;50327;51.328;12.324;2022-10-12T07:02:04;18.50;;;9.57;;
64075;SDS011;50327;51.328;12.324;2022-10-12T07:04:29;21.85;;;11.55;;
64075;SDS011;50327;51.328;12.324;2022-10-12T07:06:55;30.13;;;11.43;;
64075;SDS011;50327;51.328;12.324;2022-10-12T07:09:20;20.98;;;10.38;;
64075;SDS011;50327;51.328;12.324;2022-10-12T07:11:45;22.00;;;11.10;;
64075;SDS011;50327;51.328;12.324;2022-10-12T07:14:11;29.42;;;10.52;;
64075;SDS011;50327;51.328;12.324;2022-10-12T07:16:36;29.02;;;11.35;;
64075;SDS011;50327;51.328;12.324;2022-10-12T07:19:01;33.85;;;12.43;;
64075;SDS011;50327;51.328;12.324;2022-10-12T07:21:27;50.80;;;14.75;;
64075;SDS011;50327;51.328;12.324;2022-10-12T07:23:52;26.60;;;10.93;;
64075;SDS011;50327;51.328;12.324;2022-10-12T07:26:17;21.98;;;9.80;;
64075;SDS011;50327;51.328;12.324;2022-10-12T07:28:42;22.60;;;10.05;;
64075;SDS011;50327;51.328;12.324;2022-10-12T07:31:08;29.20;;;9.40;;
64075;SDS011;50327;51.328;12.324;2022-10-12T07:33:34;22.42;;;10.05;;
64075;SDS011;50327;51.328;12.324;2022-10-12T07:36:00;33.53;;;11.70;;
64075;SDS011;50327;51.328;12.324;2022-10-12T07:38:25;25.95;;;10.35;;
64075;SDS011;50327;51.328;12.324;2022-10-12T07:40:51;29.77;;;9.63;;
64075;SDS011;50327;51.328;12.324;2022-10-12T07:43:16;20.25;;;9.27;;
64075;SDS011;50327;51.328;12.324;2022-10-12T07:45:42;33.15;;;10.18;;
64075;SDS011;50327;51.328;12.324;2022-10-12T07:48:07;31.38;;;9.10;;
64075;SDS011;50327;51.328;12.324;2022-10-12T07:50:33;21.73;;;8.38;;
64075;SDS011;50327;51.328;12.324;2022-10-12T07:52:58;27.50;;;9.55;;
64075;SDS011;50327;51.328;12.324;2022-10-12T07:55:23;22.08;;;9.00;;
64075;SDS011;50327;51.328;12.324;2022-10-12T07:57:48;22.88;;;7.55;;
64075;SDS011;50327;51.328;12.324;2022-10-12T08:00:13;13.90;;;6.80;;
64075;SDS011;50327;51.328;12.324;2022-10-12T08:02:39;19.58;;;7.53;;
64075;SDS011;50327;51.328;12.324;2022-10-12T08:05:04;24.08;;;8.93;;
64075;SDS011;50327;51.328;12.324;2022-10-12T08:07:29;21.58;;;8.77;;
64075;SDS011;50327;51.328;12.324;2022-10-12T08:09:54;21.35;;;6.40;;
64075;SDS011;50327;51.328;12.324;2022-10-12T08:12:21;25.67;;;8.90;;
64075;SDS011;50327;51.328;12.324;2022-10-12T08:14:46;26.13;;;8.07;;
64075;SDS011;50327;51.328;12.324;2022-10-12T08:17:11;26.65;;;7.88;;
64075;SDS011;50327;51.328;12.324;2022-10-12T08:19:37;24.00;;;7.38;;
64075;SDS011;50327;51.328;12.324;2022-10-12T08:22:02;27.52;;;7.57;;
64075;SDS011;50327;51.328;12.324;2022-10-12T08:24:27;25.75;;;7.57;;
64075;SDS011;50327;51.328;12.324;2022-10-12T08:26:52;24.25;;;7.53;;
64075;SDS011;50327;51.328;12.324;2022-10-12T08:29:18;22.30;;;8.02;;
64075;SDS011;50327;51.328;12.324;2022-10-12T08:31:43;22.13;;;6.90;;
64075;SDS011;50327;51.328;12.324;2022-10-12T08:34:08;23.38;;;6.50;;
64075;SDS011;50327;51.328;12.324;2022-10-12T08:36:33;25.77;;;8.18;;
64075;SDS011;50327;51.328;12.324;2022-10-12T08:38:59;31.55;;;7.55;;
64075;SDS011;50327;51.328;12.324;2022-10-12T08:44:01;19.52;;;6.25;;
64075;SDS011;50327;51.328;12.324;2022-10-12T08:46:29;25.40;;;7.43;;
64075;SDS011;50327;51.328;12.324;2022-10-12T08:49:02;28.38;;;7.32;;
64075;SDS011;50327;51.328;12.324;2022-10-12T08:51:29;21.02;;;7.40;;
64075;SDS011;50327;51.328;12.324;2022-10-12T08:56:23;23.10;;;6.80;;
64075;SDS011;50327;51.328;12.324;2022-10-12T08:58:49;22.52;;;6.55;;
64075;SDS011;50327;51.328;12.324;2022-10-12T09:01:25;19.08;;;5.95;;
64075;SDS011;50327;51.328;12.324;2022-10-12T09:04:09;20.10;;;6.25;;
64075;SDS011;50327;51.328;12.324;2022-10-12T09:06:39;14.85;;;6.32;;
64075;SDS011;50327;51.328;12.324;2022-10-12T09:09:12;24.80;;;5.90;;
64075;SDS011;50327;51.328;12.324;2022-10-12T09:14:06;19.57;;;6.50;;
64075;SDS011;50327;51.328;12.324;2022-10-12T09:16:33;25.50;;;6.18;;
64075;SDS011;50327;51.328;12.324;2022-10-12T09:19:00;17.33;;;5.53;;
64075;SDS011;50327;51.328;12.324;2022-10-12T09:21:27;16.10;;;5.20;;
64075;SDS011;50327;51.328;12.324;2022-10-12T09:23:55;28.48;;;5.97;;
64075;SDS011;50327;51.328;12.324;2022-10-12T09:28:56;16.58;;;5.28;;
64075;SDS011;50327;51.328;12.324;2022-10-12T09:34:06;12.70;;;5.18;;
64075;SDS011;50327;51.328;12.324;2022-10-12T09:36:38;17.23;;;5.43;;
64075;SDS011;50327;51.328;12.324;2022-10-12T09:39:10;27.05;;;5.15;;
64075;SDS011;50327;51.328;12.324;2022-10-12T09:41:38;18.17;;;5.47;;
64075;SDS011;50327;51.328;12.324;2022-10-12T09:44:05;19.52;;;5.00;;
64075;SDS011;50327;51.328;12.324;2022-10-12T09:47:21;25.42;;;5.05;;
64075;SDS011;50327;51.328;12.324;2022-10-12T09:49:19;20.15;;;4.30;;
64075;SDS011;50327;51.328;12.324;2022-10-12T09:51:44;16.50;;;5.38;;
64075;SDS011;50327;51.328;12.324;2022-10-12T09:54:15;19.00;;;4.43;;
64075;SDS011;50327;51.328;12.324;2022-10-12T09:56:42;17.23;;;4.35;;
64075;SDS011;50327;51.328;12.324;2022-10-12T09:59:19;25.60;;;4.53;;
64075;SDS011;50327;51.328;12.324;2022-10-12T10:04:28;22.25;;;4.45;;
64075;SDS011;50327;51.328;12.324;2022-10-12T10:06:54;20.45;;;4.25;;
64075;SDS011;50327;51.328;12.324;2022-10-12T10:09:32;14.57;;;3.35;;
64075;SDS011;50327;51.328;12.324;2022-10-12T10:12:10;17.45;;;4.57;;
64075;SDS011;50327;51.328;12.324;2022-10-12T10:14:35;16.60;;;3.10;;
64075;SDS011;50327;51.328;12.324;2022-10-12T10:17:01;34.88;;;3.97;;
64075;SDS011;50327;51.328;12.324;2022-10-12T10:19:26;16.75;;;4.35;;
64075;SDS011;50327;51.328;12.324;2022-10-12T10:21:51;25.50;;;4.43;;
64075;SDS011;50327;51.328;12.324;2022-10-12T10:26:49;17.77;;;4.40;;
64075;SDS011;50327;51.328;12.324;2022-10-12T10:31:40;15.32;;;3.33;;
64075;SDS011;50327;51.328;12.324;2022-10-12T10:36:43;16.85;;;3.92;;
64075;SDS011;50327;51.328;12.324;2022-10-12T10:39:17;26.75;;;4.28;;
64075;SDS011;50327;51.328;12.324;2022-10-12T10:41:42;28.67;;;4.72;;
64075;SDS011;50327;51.328;12.324;2022-10-12T10:47:07;23.20;;;3.72;;
64075;SDS011;50327;51.328;12.324;2022-10-12T10:51:58;12.85;;;3.30;;
64075;SDS011;50327;51.328;12.324;2022-10-12T10:54:28;13.18;;;3.63;;
64075;SDS011;50327;51.328;12.324;2022-10-12T10:57:01;19.42;;;4.55;;
64075;SDS011;50327;51.328;12.324;2022-10-12T10:59:29;40.55;;;9.23;;
64075;SDS011;50327;51.328;12.324;2022-10-12T11:02:00;21.08;;;4.00;;
64075;SDS011;50327;51.328;12.324;2022-10-12T11:04:34;21.60;;;4.20;;
64075;SDS011;50327;51.328;12.324;2022-10-12T11:07:03;20.70;;;3.85;;
64075;SDS011;50327;51.328;12.324;2022-10-12T11:09:38;46.60;;;11.82;;
64075;SDS011;50327;51.328;12.324;2022-10-12T11:12:05;70.10;;;21.40;;
64075;SDS011;50327;51.328;12.324;2022-10-12T11:14:51;30.40;;;8.18;;
64075;SDS011;50327;51.328;12.324;2022-10-12T11:17:18;26.23;;;5.63;;
64075;SDS011;50327;51.328;12.324;2022-10-12T11:19:50;18.60;;;3.78;;
64075;SDS011;50327;51.328;12.324;2022-10-12T11:22:21;13.52;;;3.42;;
64075;SDS011;50327;51.328;12.324;2022-10-12T11:24:53;13.18;;;3.45;;
64075;SDS011;50327;51.328;12.324;2022-10-12T11:29:50;24.58;;;5.28;;
64075;SDS011;50327;51.328;12.324;2022-10-12T11:32:21;18.05;;;4.38;;
64075;SDS011;50327;51.328;12.324;2022-10-12T11:34:51;12.68;;;3.85;;
64075;SDS011;50327;51.328;12.324;2022-10-12T11:37:19;25.13;;;4.05;;
64075;SDS011;50327;51.328;12.324;2022-10-12T11:39:45;15.75;;;3.67;;
64075;SDS011;50327;51.328;12.324;2022-10-12T11:42:13;17.70;;;4.97;;
64075;SDS011;50327;51.328;12.324;2022-10-12T11:44:43;20.60;;;4.43;;
64075;SDS011;50327;51.328;12.324;2022-10-12T11:52:17;16.90;;;4.63;;
64075;SDS011;50327;51.328;12.324;2022-10-12T11:57:12;19.30;;;4.43;;
64075;SDS011;50327;51.328;12.324;2022-10-12T12:02:15;23.35;;;4.15;;
64075;SDS011;50327;51.328;12.324;2022-10-12T12:04:42;10.70;;;4.55;;
64075;SDS011;50327;51.328;12.324;2022-10-12T12:09:46;19.95;;;4.90;;
64075;SDS011;50327;51.328;12.324;2022-10-12T12:12:22;18.52;;;3.80;;
64075;SDS011;50327;51.328;12.324;2022-10-12T12:19:45;17.20;;;4.37;;
64075;SDS011;50327;51.328;12.324;2022-10-12T12:22:26;26.75;;;4.18;;
64075;SDS011;50327;51.328;12.324;2022-10-12T12:27:28;15.60;;;3.90;;
64075;SDS011;50327;51.328;12.324;2022-10-12T12:29:54;16.77;;;4.45;;
64075;SDS011;50327;51.328;12.324;2022-10-12T12:32:21;23.15;;;4.10;;
64075;SDS011;50327;51.328;12.324;2022-10-12T12:34:50;18.15;;;4.72;;
64075;SDS011;50327;51.328;12.324;2022-10-12T12:37:17;22.15;;;3.78;;
64075;SDS011;50327;51.328;12.324;2022-10-12T12:39:45;18.80;;;5.47;;
64075;SDS011;50327;51.328;12.324;2022-10-12T12:42:19;18.35;;;4.57;;
64075;SDS011;50327;51.328;12.324;2022-10-12T12:44:45;26.83;;;5.35;;
64075;SDS011;50327;51.328;12.324;2022-10-12T12:52:01;19.10;;;4.73;;
64075;SDS011;50327;51.328;12.324;2022-10-12T12:54:27;22.90;;;4.68;;
64075;SDS011;50327;51.328;12.324;2022-10-12T13:11:55;17.25;;;4.20;;
64075;SDS011;50327;51.328;12.324;2022-10-12T13:19:18;13.07;;;4.18;;
64075;SDS011;50327;51.328;12.324;2022-10-12T13:21:45;30.70;;;6.82;;
64075;SDS011;50327;51.328;12.324;2022-10-12T13:24:27;20.95;;;4.18;;
64075;SDS011;50327;51.328;12.324;2022-10-12T13:26:54;19.63;;;3.90;;
64075;SDS011;50327;51.328;12.324;2022-10-12T13:29:28;20.20;;;4.43;;
64075;SDS011;50327;51.328;12.324;2022-10-12T13:31:57;24.67;;;5.90;;
64075;SDS011;50327;51.328;12.324;2022-10-12T13:34:25;26.55;;;4.93;;
64075;SDS011;50327;51.328;12.324;2022-10-12T13:39:18;24.77;;;5.85;;
64075;SDS011;50327;51.328;12.324;2022-10-12T13:41:44;28.42;;;5.32;;
64075;SDS011;50327;51.328;12.324;2022-10-12T13:44:17;31.83;;;4.78;;
64075;SDS011;50327;51.328;12.324;2022-10-12T13:46:56;18.80;;;4.80;;
64075;SDS011;50327;51.328;12.324;2022-10-12T13:51:52;17.92;;;4.10;;
64075;SDS011;50327;51.328;12.324;2022-10-12T13:54:19;16.50;;;4.22;;
64075;SDS011;50327;51.328;12.324;2022-10-12T13:56:45;18.20;;;4.13;;
64075;SDS011;50327;51.328;12.324;2022-10-12T13:59:14;17.60;;;4.25;;
64075;SDS011;50327;51.328;12.324;2022-10-12T14:01:47;17.67;;;5.28;;
64075;SDS011;50327;51.328;12.324;2022-10-12T14:04:12;15.68;;;4.55;;
64075;SDS011;50327;51.328;12.324;2022-10-12T14:06:38;24.92;;;5.32;;
64075;SDS011;50327;51.328;12.324;2022-10-12T14:09:07;18.70;;;4.20;;
64075;SDS011;50327;51.328;12.324;2022-10-12T14:11:33;15.60;;;4.30;;
64075;SDS011;50327;51.328;12.324;2022-10-12T14:13:58;23.20;;;4.60;;
64075;SDS011;50327;51.328;12.324;2022-10-12T14:16:24;16.58;;;3.70;;
64075;SDS011;50327;51.328;12.324;2022-10-12T14:18:49;31.52;;;4.93;;
64075;SDS011;50327;51.328;12.324;2022-10-12T14:21:17;35.35;;;5.30;;
64075;SDS011;50327;51.328;12.324;2022-10-12T14:23:47;13.20;;;4.70;;
64075;SDS011;50327;51.328;12.324;2022-10-12T14:26:23;17.63;;;5.45;;
64075;SDS011;50327;51.328;12.324;2022-10-12T14:28:49;16.90;;;4.28;;
64075;SDS011;50327;51.328;12.324;2022-10-12T14:31:14;22.55;;;3.95;;
64075;SDS011;50327;51.328;12.324;2022-10-12T14:33:39;15.75;;;3.97;;
64075;SDS011;50327;51.328;12.324;2022-10-12T14:38:43;15.80;;;4.40;;
64075;SDS011;50327;51.328;12.324;2022-10-12T14:46:36;26.13;;;5.30;;
64075;SDS011;50327;51.328;12.324;2022-10-12T14:49:02;23.50;;;4.43;;
64075;SDS011;50327;51.328;12.324;2022-10-12T14:51:28;15.45;;;4.15;;
64075;SDS011;50327;51.328;12.324;2022-10-12T14:53:59;22.80;;;5.20;;
64075;SDS011;50327;51.328;12.324;2022-10-12T14:56:25;16.60;;;4.22;;
64075;SDS011;50327;51.328;12.324;2022-10-12T14:58:50;20.13;;;4.37;;
64075;SDS011;50327;51.328;12.324;2022-10-12T15:01:15;18.10;;;4.60;;
64075;SDS011;50327;51.328;12.324;2022-10-12T15:03:41;18.38;;;4.65;;
64075;SDS011;50327;51.328;12.324;2022-10-12T15:06:08;16.27;;;5.17;;
64075;SDS011;50327;51.328;12.324;2022-10-12T15:08:34;17.73;;;4.55;;
64075;SDS011;50327;51.328;12.324;2022-10-12T15:11:00;19.35;;;4.75;;
64075;SDS011;50327;51.328;12.324;2022-10-12T15:13:25;19.23;;;4.20;;
64075;SDS011;50327;51.328;12.324;2022-10-12T15:15:50;22.80;;;5.40;;
64075;SDS011;50327;51.328;12.324;2022-10-12T15:18:16;17.88;;;4.28;;
64075;SDS011;50327;51.328;12.324;2022-10-12T15:20:41;28.33;;;4.53;;
64075;SDS011;50327;51.328;12.324;2022-10-12T15:23:06;15.95;;;4.30;;
64075;SDS011;50327;51.328;12.324;2022-10-12T15:25:40;17.50;;;3.50;;
64075;SDS011;50327;51.328;12.324;2022-10-12T15:28:07;22.60;;;3.97;;
64075;SDS011;50327;51.328;12.324;2022-10-12T15:30:32;25.42;;;4.93;;
64075;SDS011;50327;51.328;12.324;2022-10-12T15:32:57;19.35;;;5.35;;
64075;SDS011;50327;51.328;12.324;2022-10-12T15:35:24;29.55;;;7.50;;
64075;SDS011;50327;51.328;12.324;2022-10-12T15:37:49;19.58;;;4.40;;
64075;SDS011;50327;51.328;12.324;2022-10-12T15:40:15;17.58;;;5.43;;
64075;SDS011;50327;51.328;12.324;2022-10-12T15:42:40;17.42;;;5.55;;
64075;SDS011;50327;51.328;12.324;2022-10-12T15:47:47;16.63;;;4.63;;
64075;SDS011;50327;51.328;12.324;2022-10-12T15:50:12;20.98;;;4.10;;
64075;SDS011;50327;51.328;12.324;2022-10-12T15:52:38;17.08;;;4.28;;
64075;SDS011;50327;51.328;12.324;2022-10-12T15:55:05;25.25;;;5.03;;
64075;SDS011;50327;51.328;12.324;2022-10-12T15:57:30;17.83;;;4.75;;
64075;SDS011;50327;51.328;12.324;2022-10-12T15:59:55;31.15;;;4.95;;
64075;SDS011;50327;51.328;12.324;2022-10-12T16:02:20;16.53;;;4.47;;
64075;SDS011;50327;51.328;12.324;2022-10-12T16:04:49;22.08;;;5.00;;
64075;SDS011;50327;51.328;12.324;2022-10-12T16:07:14;22.55;;;5.05;;
64075;SDS011;50327;51.328;12.324;2022-10-12T16:09:40;16.83;;;5.40;;
64075;SDS011;50327;51.328;12.324;2022-10-12T16:12:05;26.80;;;5.10;;
64075;SDS011;50327;51.328;12.324;2022-10-12T16:14:30;16.60;;;4.00;;